Terminal Aerodrome Forecast
Issued by NWS

Home | Current Version | Previous Version | Text Only | Print | Product List | Glossary On
Versions: 1 2 3 4 5 6 7 8 9 10 11 12 13 14
000
FTUS44 KOUN 211142
TAFHBR
TAF
KHBR 211142Z 2112/2212 17006KT 1/2SM FG OVC002
     FM211300 20006KT 2SM BR SCT004 OVC008
     FM211500 03005KT P6SM OVC008
     FM211800 02010KT P6SM OVC015
     FM212100 02012KT P6SM BKN050
     FM220000 03012KT P6SM SKC=

USA.gov is the U.S. government's official web portal to all federal, state and local government web resources and services.